createdAt,value
2018-11-06T00:08:52.599Z,8.30
2018-11-06T00:39:17.678Z,7.80
2018-11-06T00:59:33.345Z,7.60
2018-11-06T01:19:48.970Z,7.90
2018-11-06T01:29:56.906Z,7.90
2018-11-06T01:35:00.973Z,7.70
2018-11-06T01:40:06.234Z,7.60
2018-11-06T02:00:24.813Z,8.10
2018-11-06T02:15:36.612Z,8.10
2018-11-06T02:25:44.546Z,8.10
2018-11-06T02:30:48.662Z,8.10
2018-11-06T03:16:23.966Z,8.40
2018-11-06T03:21:28.042Z,8.40
2018-11-06T03:36:39.778Z,8.40
2018-11-06T03:56:55.433Z,8.90
2018-11-06T04:17:11.032Z,9.10
2018-11-06T04:37:27.336Z,9.40
2018-11-06T04:42:31.396Z,9.70
2018-11-06T04:47:35.426Z,9.80
2018-11-06T04:52:40.438Z,9.90
2018-11-06T05:02:48.579Z,10.00
2018-11-06T05:12:56.419Z,9.90
2018-11-06T05:23:04.886Z,10.00
2018-11-06T06:28:54.772Z,9.80
2018-11-06T07:09:26.294Z,9.40
2018-11-06T07:19:34.178Z,9.40
2018-11-06T07:24:38.193Z,9.50
2018-11-06T07:29:42.210Z,9.80
2018-11-06T07:34:46.408Z,10.10
2018-11-06T07:44:54.099Z,11.00
2018-11-06T07:55:01.910Z,11.60
2018-11-06T08:25:30.089Z,11.40
2018-11-06T08:40:42.460Z,11.50
2018-11-06T08:45:46.510Z,11.40
2018-11-06T08:50:50.567Z,11.40
2018-11-06T09:06:02.226Z,11.60
2018-11-06T09:26:18.494Z,12.30
2018-11-06T09:36:26.603Z,12.40
2018-11-06T09:46:35.419Z,12.50
2018-11-06T10:01:47.919Z,12.90
2018-11-06T10:22:03.354Z,13.00
2018-11-06T10:47:22.564Z,13.70
2018-11-06T10:52:26.598Z,13.90
2018-11-06T10:57:30.674Z,14.10
2018-11-06T11:02:39.898Z,14.10
2018-11-06T11:17:52.630Z,14.40
2018-11-06T11:22:56.646Z,14.60
2018-11-06T11:28:00.675Z,14.90
2018-11-06T11:48:16.367Z,15.20
2018-11-06T11:58:24.293Z,15.30
2018-11-06T12:03:28.317Z,15.30
2018-11-06T12:08:32.378Z,15.40
2018-11-06T12:28:48.359Z,15.80
2018-11-06T12:54:07.570Z,16.80
2018-11-06T13:19:27.643Z,17.10
2018-11-06T13:29:35.446Z,17.20
2018-11-06T13:34:39.466Z,17.20
2018-11-06T13:39:43.510Z,17.20
2018-11-06T13:44:47.847Z,17.20
2018-11-06T13:49:51.638Z,17.20
2018-11-06T14:25:21.265Z,17.00
2018-11-06T14:35:29.080Z,16.70
2018-11-06T14:40:33.240Z,16.60
2018-11-06T14:55:44.855Z,16.50
2018-11-06T15:31:11.643Z,15.70
2018-11-06T15:56:31.343Z,15.00
2018-11-06T16:01:35.406Z,15.00
2018-11-06T16:11:43.311Z,14.70
2018-11-06T16:21:51.156Z,14.20
2018-11-06T16:37:02.823Z,13.60
2018-11-06T16:52:14.492Z,13.10
2018-11-06T17:37:49.141Z,12.90
2018-11-06T18:13:16.392Z,12.40
2018-11-06T18:18:20.426Z,12.30
2018-11-06T18:33:32.163Z,12.50
2018-11-06T18:38:36.204Z,12.60
2018-11-06T18:53:47.917Z,12.50
2018-11-06T18:58:51.950Z,12.40
2018-11-06T19:08:59.799Z,12.00
2018-11-06T19:19:07.866Z,12.00
2018-11-06T19:29:15.693Z,11.90
2018-11-06T19:39:23.582Z,11.70
2018-11-06T20:40:13.333Z,11.60
2018-11-06T20:50:24.108Z,11.70
2018-11-06T21:00:31.946Z,11.80
2018-11-06T21:05:36.016Z,12.00
2018-11-06T21:15:43.847Z,12.10
2018-11-06T21:20:47.902Z,12.10
2018-11-06T21:25:52.189Z,12.10
2018-11-06T21:35:59.816Z,12.10
2018-11-06T21:46:07.643Z,12.10
2018-11-06T21:56:15.588Z,12.00
2018-11-06T22:01:19.618Z,12.00
2018-11-06T22:41:51.218Z,11.50
2018-11-06T22:46:55.320Z,11.40
2018-11-06T22:57:03.242Z,11.40
2018-11-06T23:07:16.211Z,11.00
2018-11-06T23:12:20.131Z,10.80
2018-11-06T23:17:24.167Z,10.60
2018-11-06T23:32:35.836Z,10.60
2018-11-06T23:37:40.639Z,10.50
2018-11-06T23:42:44.663Z,10.40
2018-11-06T23:47:48.774Z,10.20
2018-11-06T23:52:52.781Z,10.10
